Kingston, Nevada
Current Conditions -  °F | °C
As of 2:53 AM on Thursday 23 Oct 2014 (Local Time) from KLOL Reporting Station
Clear Clear  
Wind Chill: 44°   Ceiling: Unl
Heat Index: 47°   Visibility: 10mi
Dew Point: 24°   Wind: 6mph
Humidity: 41%   Direction: 120°ESE
Pressure: 30.06"   Gusts: NA
Location:  39.7407°N, 117.085°W
Report Text: KLOL 230953Z AUTO 12005KT 10SM CLR 08/M04 A3006 RMK AO2 SLP163 T00831044
Loading
Personal Weather Stations






























Interactive Weather Map
Tropical Storm Tracking
New forecast layout! Learn more

10-Day Weather Forecast

Advertisements
Track Severe Weather on mobile